createdAt,value
2022-10-14T00:00:06.132Z,1017.09
2022-10-14T00:05:03.149Z,1017.09
2022-10-14T00:10:04.370Z,1017.18
2022-10-14T00:15:03.117Z,1017.14
2022-10-14T00:20:04.289Z,1017.2
2022-10-14T00:25:03.116Z,1017.42
2022-10-14T00:30:06.051Z,1017.57
2022-10-14T00:35:03.130Z,1017.55
2022-10-14T00:40:04.278Z,1017.5
2022-10-14T00:45:04.138Z,1017.61
2022-10-14T00:50:04.249Z,1017.76
2022-10-14T00:55:03.094Z,1017.7
2022-10-14T01:00:05.828Z,1017.73
2022-10-14T01:05:03.061Z,1017.77
2022-10-14T01:10:04.214Z,1018.01
2022-10-14T01:15:03.110Z,1017.96
2022-10-14T01:20:04.229Z,1017.97
2022-10-14T01:25:03.074Z,1018.11
2022-10-14T01:30:06.151Z,1018.19
2022-10-14T01:35:03.118Z,1018.05
2022-10-14T01:40:04.251Z,1018.1
2022-10-14T01:45:03.034Z,1018.05
2022-10-14T01:50:05.417Z,1017.89
2022-10-14T01:55:03.061Z,1017.79
2022-10-14T02:00:04.338Z,1017.64
2022-10-14T02:05:03.166Z,1017.62
2022-10-14T02:10:04.265Z,1017.67
2022-10-14T02:15:03.173Z,1017.68
2022-10-14T02:20:04.324Z,1017.7
2022-10-14T02:25:02.987Z,1017.55
2022-10-14T02:30:05.400Z,1017.53
2022-10-14T02:35:03.078Z,1017.56
2022-10-14T02:40:04.244Z,1017.63
2022-10-14T02:45:03.169Z,1017.76
2022-10-14T02:50:04.297Z,1017.77
2022-10-14T02:55:03.031Z,1018.01
2022-10-14T03:00:06.905Z,1018.19
2022-10-14T03:05:03.063Z,1018.3
2022-10-14T03:10:04.719Z,1018.21
2022-10-14T03:15:03.125Z,1018.17
2022-10-14T03:20:04.191Z,1018.17
2022-10-14T03:25:03.138Z,1018.17
2022-10-14T03:30:06.079Z,1018.14
2022-10-14T03:35:03.066Z,1018.16
2022-10-14T03:40:09.273Z,1018.14
2022-10-14T03:45:03.043Z,1018.14
2022-10-14T03:50:04.189Z,1018.18
2022-10-14T03:55:03.089Z,1018.12
2022-10-14T04:00:04.573Z,1018.17
2022-10-14T04:05:03.131Z,1018.1
2022-10-14T04:10:04.590Z,1018.13
2022-10-14T04:15:03.145Z,1018.08
2022-10-14T04:20:04.252Z,1018.05
2022-10-14T04:25:03.145Z,1017.88
2022-10-14T04:30:06.117Z,1017.8
2022-10-14T04:35:03.129Z,1017.76
2022-10-14T04:40:04.209Z,1017.75
2022-10-14T04:45:03.338Z,1017.67
2022-10-14T04:50:04.371Z,1017.53
2022-10-14T04:55:03.117Z,1017.51
2022-10-14T05:00:06.051Z,1017.58
2022-10-14T05:05:03.089Z,1017.68
2022-10-14T05:10:04.207Z,1017.72
2022-10-14T05:15:03.144Z,1017.72
2022-10-14T05:20:04.272Z,1017.73
2022-10-14T05:25:03.159Z,1017.73
2022-10-14T05:30:05.891Z,1017.68
2022-10-14T05:35:03.212Z,1017.6
2022-10-14T05:40:04.295Z,1017.58
2022-10-14T05:45:03.177Z,1017.62
2022-10-14T05:50:04.219Z,1017.67
2022-10-14T05:55:03.058Z,1017.76
2022-10-14T06:00:05.374Z,1017.83
2022-10-14T06:05:03.080Z,1017.79
2022-10-14T06:10:04.246Z,1017.74
2022-10-14T06:15:03.124Z,1017.81
2022-10-14T06:20:04.374Z,1017.84
2022-10-14T06:25:04.386Z,1017.87
2022-10-14T06:30:04.469Z,1017.82
2022-10-14T06:35:03.143Z,1017.65
2022-10-14T06:40:04.207Z,1017.65
2022-10-14T06:45:03.141Z,1017.71
2022-10-14T06:50:04.273Z,1017.66
2022-10-14T06:55:03.471Z,1017.64
2022-10-14T07:00:06.091Z,1017.62
2022-10-14T07:05:03.061Z,1017.6
2022-10-14T07:10:04.242Z,1017.51
2022-10-14T07:15:03.043Z,1017.45
2022-10-14T07:20:04.308Z,1017.48
2022-10-14T07:25:03.103Z,1017.48
2022-10-14T07:30:05.677Z,1017.38
2022-10-14T07:35:03.466Z,1017.38
2022-10-14T07:40:04.135Z,1017.34
2022-10-14T07:45:03.257Z,1017.32
2022-10-14T07:50:04.282Z,1017.23
2022-10-14T07:55:03.214Z,1017.05
2022-10-14T08:00:06.125Z,1016.71
2022-10-14T08:05:19.318Z,1016.65
2022-10-14T08:10:04.137Z,1016.61
2022-10-14T08:15:04.120Z,1016.64
2022-10-14T08:20:04.427Z,1016.53
2022-10-14T08:25:03.281Z,1016.23
2022-10-14T08:30:08.656Z,1016.11
2022-10-14T08:35:03.105Z,1016.21
2022-10-14T08:40:04.344Z,1016.08
2022-10-14T08:45:03.001Z,1016.08
2022-10-14T08:50:04.111Z,1016.11
2022-10-14T08:55:03.159Z,1016.11
2022-10-14T09:00:04.918Z,1016.12
2022-10-14T09:05:03.265Z,1016.13
2022-10-14T09:10:04.167Z,1016.36
2022-10-14T09:15:03.064Z,1016.54
2022-10-14T09:20:04.203Z,1016.69
2022-10-14T09:25:03.364Z,1016.8
2022-10-14T09:30:06.045Z,1016.8
2022-10-14T09:35:03.010Z,1016.89
2022-10-14T09:40:04.194Z,1016.96
2022-10-14T09:45:03.146Z,1017.17
2022-10-14T09:50:04.280Z,1017.4
2022-10-14T09:55:03.301Z,1017.61
2022-10-14T10:00:05.992Z,1017.72
2022-10-14T10:05:03.066Z,1017.8
2022-10-14T10:10:07.078Z,1018.01
2022-10-14T10:15:03.097Z,1018.12
2022-10-14T10:20:04.168Z,1018.22
2022-10-14T10:25:03.240Z,1018.4
2022-10-14T10:30:06.149Z,1018.59
2022-10-14T10:35:03.057Z,1018.68
2022-10-14T10:40:04.173Z,1018.72
2022-10-14T10:45:03.072Z,1018.82
2022-10-14T10:50:04.255Z,1018.98
2022-10-14T10:55:03.132Z,1019.15
2022-10-14T11:00:06.094Z,1019.19
2022-10-14T11:05:04.691Z,1019.18
2022-10-14T11:10:04.182Z,1019.15
2022-10-14T11:15:03.208Z,1019.03
2022-10-14T11:20:04.307Z,1018.98
2022-10-14T11:25:03.086Z,1019.01
2022-10-14T11:30:04.811Z,1019.06
2022-10-14T11:35:03.087Z,1019.13
2022-10-14T11:40:04.203Z,1019.21
2022-10-14T11:45:03.078Z,1019.3
2022-10-14T11:50:04.194Z,1019.25
2022-10-14T11:55:03.022Z,1019.38
2022-10-14T12:00:05.985Z,1019.48
2022-10-14T12:05:03.076Z,1019.6
2022-10-14T12:10:04.228Z,1019.54
2022-10-14T12:15:03.086Z,1019.56
2022-10-14T12:20:04.203Z,1019.63
2022-10-14T12:25:03.073Z,1019.66
2022-10-14T12:30:06.022Z,1019.77
2022-10-14T12:35:03.117Z,1019.83
2022-10-14T12:40:04.411Z,1019.77
2022-10-14T12:45:02.997Z,1019.86
2022-10-14T12:50:04.188Z,1019.94
2022-10-14T12:55:03.102Z,1019.94
2022-10-14T13:00:04.622Z,1019.98
2022-10-14T13:05:03.171Z,1019.91
2022-10-14T13:10:04.330Z,1019.93
2022-10-14T13:15:03.172Z,1020.09
2022-10-14T13:20:04.192Z,1020.06
2022-10-14T13:25:03.063Z,1020.06
2022-10-14T13:30:06.088Z,1020.07
2022-10-14T13:35:03.170Z,1020.15
2022-10-14T13:40:04.303Z,1020.15
2022-10-14T13:45:03.129Z,1020.11
2022-10-14T13:50:04.239Z,1020.1
2022-10-14T13:55:03.292Z,1020.07
2022-10-14T14:00:38.430Z,1020.02
2022-10-14T14:05:03.322Z,1020.0
2022-10-14T14:10:04.261Z,1020.04
2022-10-14T14:15:03.097Z,1019.94
2022-10-14T14:20:04.233Z,1019.91
2022-10-14T14:25:12.533Z,1019.94
2022-10-14T14:30:06.151Z,1019.9
2022-10-14T14:35:03.107Z,1019.89
2022-10-14T14:40:04.217Z,1019.88
2022-10-14T14:45:03.057Z,1019.9
2022-10-14T14:55:03.274Z,1019.81
2022-10-14T15:00:05.734Z,1019.8
2022-10-14T15:05:03.151Z,1019.78
2022-10-14T15:10:04.266Z,1019.8
2022-10-14T15:15:03.070Z,1019.82
2022-10-14T15:20:09.337Z,1019.75
2022-10-14T15:25:03.230Z,1019.69
2022-10-14T15:30:06.061Z,1019.74
2022-10-14T15:35:03.089Z,1019.86
2022-10-14T15:40:04.309Z,1019.75
2022-10-14T15:45:03.172Z,1019.68
2022-10-14T15:50:04.214Z,1019.65
2022-10-14T15:55:03.179Z,1019.65
2022-10-14T16:00:04.639Z,1019.54
2022-10-14T16:05:20.033Z,1019.53
2022-10-14T16:10:04.244Z,1019.44
2022-10-14T16:15:03.150Z,1019.33
2022-10-14T16:20:04.278Z,1019.21
2022-10-14T16:25:03.155Z,1019.19
2022-10-14T16:30:06.066Z,1019.19
2022-10-14T16:35:04.129Z,1019.03
2022-10-14T16:40:04.272Z,1019.02
2022-10-14T16:45:03.106Z,1018.84
2022-10-14T16:50:04.230Z,1018.68
2022-10-14T16:55:03.150Z,1018.63
2022-10-14T17:00:05.276Z,1018.5
2022-10-14T17:05:03.083Z,1018.47
2022-10-14T17:10:04.202Z,1018.4
2022-10-14T17:15:03.028Z,1018.29
2022-10-14T17:20:04.239Z,1018.28
2022-10-14T17:25:03.168Z,1018.22
2022-10-14T17:30:04.261Z,1018.12
2022-10-14T17:35:03.108Z,1018.1
2022-10-14T17:40:04.308Z,1018.11
2022-10-14T17:45:03.106Z,1018.0
2022-10-14T17:50:04.340Z,1017.97
2022-10-14T17:55:03.050Z,1018.04
2022-10-14T18:00:06.025Z,1018.04
2022-10-14T18:05:03.133Z,1017.94
2022-10-14T18:10:04.239Z,1017.87
2022-10-14T18:15:03.137Z,1017.74
2022-10-14T18:20:04.182Z,1017.84
2022-10-14T18:25:03.107Z,1017.84
2022-10-14T18:30:05.234Z,1017.68
2022-10-14T18:35:03.083Z,1017.7
2022-10-14T18:40:04.197Z,1017.68
2022-10-14T18:45:03.101Z,1017.58
2022-10-14T18:50:04.243Z,1017.49
2022-10-14T18:55:03.078Z,1017.49
2022-10-14T19:00:07.419Z,1017.49
2022-10-14T19:05:03.209Z,1017.41
2022-10-14T19:10:04.252Z,1017.43
2022-10-14T19:15:02.988Z,1017.53
2022-10-14T19:20:04.211Z,1017.68
2022-10-14T19:25:03.090Z,1017.57
2022-10-14T19:30:04.496Z,1017.53
2022-10-14T19:35:03.078Z,1017.47
2022-10-14T19:40:04.213Z,1017.49
2022-10-14T19:45:03.154Z,1017.57
2022-10-14T19:50:04.260Z,1017.75
2022-10-14T19:55:03.136Z,1017.8
2022-10-14T20:00:04.397Z,1017.78
2022-10-14T20:05:03.112Z,1017.75
2022-10-14T20:10:07.429Z,1017.77
2022-10-14T20:15:03.086Z,1017.79
2022-10-14T20:20:04.274Z,1017.75
2022-10-14T20:25:03.104Z,1017.8
2022-10-14T20:30:04.435Z,1017.76
2022-10-14T20:35:03.108Z,1017.8
2022-10-14T20:40:04.424Z,1017.88
2022-10-14T20:45:03.175Z,1017.9
2022-10-14T20:50:04.260Z,1017.86
2022-10-14T20:55:03.146Z,1017.92
2022-10-14T21:00:06.034Z,1018.03
2022-10-14T21:05:03.117Z,1018.01
2022-10-14T21:10:04.574Z,1018.01
2022-10-14T21:15:03.148Z,1018.0
2022-10-14T21:20:05.280Z,1018.01
2022-10-14T21:25:03.110Z,1018.0
2022-10-14T21:30:04.825Z,1018.08
2022-10-14T21:35:03.421Z,1018.17
2022-10-14T21:40:04.242Z,1018.19
2022-10-14T21:45:03.343Z,1018.23
2022-10-14T21:50:04.475Z,1018.27
2022-10-14T21:55:03.144Z,1018.27
2022-10-14T22:00:06.047Z,1018.26
2022-10-14T22:05:03.123Z,1018.24
2022-10-14T22:10:04.473Z,1018.19
2022-10-14T22:15:03.301Z,1018.22
2022-10-14T22:20:04.335Z,1018.14
2022-10-14T22:25:03.254Z,1018.11
2022-10-14T22:30:06.500Z,1018.23
2022-10-14T22:35:03.268Z,1018.35
2022-10-14T22:40:04.362Z,1018.36
2022-10-14T22:45:03.242Z,1018.41
2022-10-14T22:50:04.397Z,1018.42
2022-10-14T22:55:03.158Z,1018.4
2022-10-14T23:00:11.070Z,1018.33
2022-10-14T23:05:03.048Z,1018.22
2022-10-14T23:10:04.433Z,1018.3
2022-10-14T23:15:03.157Z,1018.24
2022-10-14T23:20:04.365Z,1018.26
2022-10-14T23:25:03.140Z,1018.41
2022-10-14T23:30:04.975Z,1018.47
2022-10-14T23:35:03.223Z,1018.47
2022-10-14T23:40:04.297Z,1018.56
2022-10-14T23:45:03.142Z,1018.69
2022-10-14T23:50:04.402Z,1018.75
2022-10-14T23:55:03.144Z,1018.73
